Nippon Maru — 3FDA7 — position and weather

sailwx.info

Track history (hours):
 
Tides and Currents Weather Stations Pressure Air Temp Water Temp Dewpoint Dewpoint Depression Visibility Wind Speed Wind Dir Waves Ship Positions

Nippon Maru

Last reported at 2014-Sep-17 16:33 UTC. Time now 2014-Sep-30 22:05 UTC.
Position N 09°02' E 123°40'.
Warning: this ship's position is 13 days out of date.

Length 190 m; draft 6.2 m.

Type: Cargo ship. MMSI: 353814000.

Date/timePositionNaut miles runAvg speedWind from/ knotsBaromVisibWave heightAir tempDewpointWater temp
2014-Sep-17 16:33N 09°02' E 123°40'1413.7
2014-Sep-17 15:32N 08°60' E 123°27'2814.1
2014-Sep-17 13:31N 08°55' E 122°58'  
2014-Sep-13 21:26N 01°17' E 104°18'1314.5
2014-Sep-13 20:33N 01°15' E 104°06'1414.1
2014-Sep-13 19:33N 01°12' E 103°52'1313.1
2014-Sep-13 18:33N 01°04' E 103°42'1010.4
2014-Sep-13 17:33N 01°08' E 103°33'10 9.8
2014-Sep-13 16:33N 01°10' E 103°42'1 0.9
2014-Sep-13 15:28N 01°11' E 103°43'0 0.1
2014-Sep-13 14:31N 01°11' E 103°43'0 0.1
2014-Sep-13 13:31N 01°11' E 103°43'0 0.0
2014-Sep-13 12:25N 01°11' E 103°43'0 0.0
2014-Sep-13 11:28N 01°11' E 103°43'0 0.0
2014-Sep-13 10:31N 01°11' E 103°43'0 0.1
2014-Sep-13 09:22N 01°11' E 103°43'0 0.0
2014-Sep-13 08:31N 01°11' E 103°43'0 0.0
2014-Sep-13 07:31N 01°11' E 103°43'0 0.0
2014-Sep-13 05:13N 01°11' E 103°43'0 0.0
2014-Sep-13 04:22N 01°11' E 103°43'0 0.1
2014-Sep-13 01:13N 01°11' E 103°42'4 5.2
2014-Sep-13 00:29N 01°15' E 103°42'1 0.7
2014-Sep-12 23:20N 01°15' E 103°42'0 0.0
2014-Sep-12 22:20N 01°15' E 103°42'0 0.0
2014-Sep-12 21:29N 01°15' E 103°42'0 0.0
2014-Sep-12 20:32N 01°15' E 103°42'0 0.0
2014-Sep-12 19:26N 01°15' E 103°42'0 0.0
2014-Sep-12 18:29N 01°15' E 103°42'0 0.0
2014-Sep-12 17:26N 01°15' E 103°42'0 0.0
2014-Sep-12 16:26N 01°15' E 103°42'0 0.0
2014-Sep-12 15:32N 01°15' E 103°42'0 0.0
2014-Sep-12 13:32N 01°15' E 103°42'0 0.0
2014-Sep-12 12:17N 01°15' E 103°42'0 0.0
2014-Sep-12 11:08N 01°15' E 103°42'0 0.0
2014-Sep-12 08:26N 01°15' E 103°42'0 0.0
2014-Sep-12 07:32N 01°15' E 103°42'0 0.0
2014-Sep-12 06:11N 01°15' E 103°42'0 0.0
2014-Sep-12 03:32N 01°15' E 103°42'0 0.0
2014-Sep-12 02:26N 01°15' E 103°42'0 0.0
2014-Sep-12 01:32N 01°15' E 103°42'0 0.0
2014-Sep-12 00:32N 01°15' E 103°42'0 0.0
2014-Sep-11 22:32N 01°15' E 103°42'0 0.0
2014-Sep-11 21:23N 01°15' E 103°42'0 0.0
2014-Sep-11 19:26N 01°15' E 103°42'0 0.0
2014-Sep-11 18:23N 01°15' E 103°42'0 0.0
2014-Sep-11 17:26N 01°15' E 103°42'0 0.0
2014-Sep-11 16:32N 01°15' E 103°42'0 0.0
2014-Sep-11 15:26N 01°15' E 103°42'0 0.0
2014-Sep-11 14:26N 01°15' E 103°42'0 0.0
2014-Sep-11 13:29N 01°15' E 103°42'0 0.0
2014-Sep-11 12:23N 01°15' E 103°42'0 0.0
2014-Sep-11 07:08N 01°15' E 103°42'0 0.0
2014-Sep-11 03:20N 01°15' E 103°42'0 0.0
2014-Sep-11 02:32N 01°15' E 103°42'0 0.0
2014-Sep-11 01:08N 01°15' E 103°42'0 0.0
2014-Sep-11 00:32N 01°15' E 103°42'0 0.0
2014-Sep-10 22:14N 01°15' E 103°42'0 0.0
2014-Sep-10 17:32N 01°15' E 103°42'0 0.0
2014-Sep-10 16:20N 01°15' E 103°42'0 0.0
2014-Sep-10 15:14N 01°15' E 103°42'0 0.0
2014-Sep-10 13:20N 01°15' E 103°42'0 0.0
2014-Sep-10 11:32N 01°15' E 103°42'0 0.0
2014-Sep-10 00:08N 01°15' E 103°42'0 0.0
2014-Sep-09 13:26N 01°15' E 103°42'0 0.0
2014-Sep-09 03:08N 01°15' E 103°42'0 0.0
2014-Sep-09 02:20N 01°15' E 103°42'0 0.0
2014-Sep-09 01:20N 01°15' E 103°42'0 0.0
2014-Sep-09 00:08N 01°15' E 103°42'0 0.0
2014-Sep-08 23:11N 01°15' E 103°42'0 0.0
2014-Sep-08 21:14N 01°15' E 103°42'0 0.0
2014-Sep-08 19:08N 01°15' E 103°42'0 0.0
2014-Sep-08 03:26N 01°15' E 103°42'0 0.0
2014-Sep-08 02:26N 01°15' E 103°42'0 0.1
2014-Sep-08 01:32N 01°15' E 103°42'1 1.4
2014-Sep-08 00:33N 01°14' E 103°42'2 1.6
2014-Sep-07 23:17N 01°12' E 103°41'0 0.0
2014-Sep-07 22:17N 01°12' E 103°41'0 0.0
2014-Sep-07 21:23N 01°12' E 103°41'0 0.0
2014-Sep-07 20:20N 01°12' E 103°41'2 1.9
2014-Sep-07 19:32N 01°12' E 103°40'4 4.2
2014-Sep-07 18:33N 01°10' E 103°43'5 5.4
2014-Sep-07 17:33N 01°11' E 103°48'6 5.8
2014-Sep-07 16:33N 01°13' E 103°54'  
Track history (hours):
 
Tides and Currents Weather Stations Pressure Air Temp Water Temp Dewpoint Dewpoint Depression Visibility Wind Speed Wind Dir Waves Ship Positions

Nippon Maru

Last reported at 2014-Sep-17 16:33 UTC. Time now 2014-Sep-30 22:05 UTC.
Position N 09°02' E 123°40'.
Warning: this ship's position is 13 days out of date.

Length 190 m; draft 6.2 m.

Type: Cargo ship. MMSI: 353814000.

Date/timePositionNaut miles runAvg speedWind from/ knotsBaromVisibWave heightAir tempDewpointWater temp
2014-Sep-17 16:33N 09°02' E 123°40'1413.7
2014-Sep-17 15:32N 08°60' E 123°27'2814.1
2014-Sep-17 13:31N 08°55' E 122°58'  
2014-Sep-13 21:26N 01°17' E 104°18'1314.5
2014-Sep-13 20:33N 01°15' E 104°06'1414.1
2014-Sep-13 19:33N 01°12' E 103°52'1313.1
2014-Sep-13 18:33N 01°04' E 103°42'1010.4
2014-Sep-13 17:33N 01°08' E 103°33'10 9.8
2014-Sep-13 16:33N 01°10' E 103°42'1 0.9
2014-Sep-13 15:28N 01°11' E 103°43'0 0.1
2014-Sep-13 14:31N 01°11' E 103°43'0 0.1
2014-Sep-13 13:31N 01°11' E 103°43'0 0.0
2014-Sep-13 12:25N 01°11' E 103°43'0 0.0
2014-Sep-13 11:28N 01°11' E 103°43'0 0.0
2014-Sep-13 10:31N 01°11' E 103°43'0 0.1
2014-Sep-13 09:22N 01°11' E 103°43'0 0.0
2014-Sep-13 08:31N 01°11' E 103°43'0 0.0
2014-Sep-13 07:31N 01°11' E 103°43'0 0.0
2014-Sep-13 05:13N 01°11' E 103°43'0 0.0
2014-Sep-13 04:22N 01°11' E 103°43'0 0.1
2014-Sep-13 01:13N 01°11' E 103°42'4 5.2
2014-Sep-13 00:29N 01°15' E 103°42'1 0.7
2014-Sep-12 23:20N 01°15' E 103°42'0 0.0
2014-Sep-12 22:20N 01°15' E 103°42'0 0.0
2014-Sep-12 21:29N 01°15' E 103°42'0 0.0
2014-Sep-12 20:32N 01°15' E 103°42'0 0.0
2014-Sep-12 19:26N 01°15' E 103°42'0 0.0
2014-Sep-12 18:29N 01°15' E 103°42'0 0.0
2014-Sep-12 17:26N 01°15' E 103°42'0 0.0
2014-Sep-12 16:26N 01°15' E 103°42'0 0.0
2014-Sep-12 15:32N 01°15' E 103°42'0 0.0
2014-Sep-12 13:32N 01°15' E 103°42'0 0.0
2014-Sep-12 12:17N 01°15' E 103°42'0 0.0
2014-Sep-12 11:08N 01°15' E 103°42'0 0.0
2014-Sep-12 08:26N 01°15' E 103°42'0 0.0
2014-Sep-12 07:32N 01°15' E 103°42'0 0.0
2014-Sep-12 06:11N 01°15' E 103°42'0 0.0
2014-Sep-12 03:32N 01°15' E 103°42'0 0.0
2014-Sep-12 02:26N 01°15' E 103°42'0 0.0
2014-Sep-12 01:32N 01°15' E 103°42'0 0.0
2014-Sep-12 00:32N 01°15' E 103°42'0 0.0
2014-Sep-11 22:32N 01°15' E 103°42'0 0.0
2014-Sep-11 21:23N 01°15' E 103°42'0 0.0
2014-Sep-11 19:26N 01°15' E 103°42'0 0.0
2014-Sep-11 18:23N 01°15' E 103°42'0 0.0
2014-Sep-11 17:26N 01°15' E 103°42'0 0.0
2014-Sep-11 16:32N 01°15' E 103°42'0 0.0
2014-Sep-11 15:26N 01°15' E 103°42'0 0.0
2014-Sep-11 14:26N 01°15' E 103°42'0 0.0
2014-Sep-11 13:29N 01°15' E 103°42'0 0.0
2014-Sep-11 12:23N 01°15' E 103°42'0 0.0
2014-Sep-11 07:08N 01°15' E 103°42'0 0.0
2014-Sep-11 03:20N 01°15' E 103°42'0 0.0
2014-Sep-11 02:32N 01°15' E 103°42'0 0.0
2014-Sep-11 01:08N 01°15' E 103°42'0 0.0
2014-Sep-11 00:32N 01°15' E 103°42'0 0.0
2014-Sep-10 22:14N 01°15' E 103°42'0 0.0
2014-Sep-10 17:32N 01°15' E 103°42'0 0.0
2014-Sep-10 16:20N 01°15' E 103°42'0 0.0
2014-Sep-10 15:14N 01°15' E 103°42'0 0.0
2014-Sep-10 13:20N 01°15' E 103°42'0 0.0
2014-Sep-10 11:32N 01°15' E 103°42'0 0.0
2014-Sep-10 00:08N 01°15' E 103°42'0 0.0
2014-Sep-09 13:26N 01°15' E 103°42'0 0.0
2014-Sep-09 03:08N 01°15' E 103°42'0 0.0
2014-Sep-09 02:20N 01°15' E 103°42'0 0.0
2014-Sep-09 01:20N 01°15' E 103°42'0 0.0
2014-Sep-09 00:08N 01°15' E 103°42'0 0.0
2014-Sep-08 23:11N 01°15' E 103°42'0 0.0
2014-Sep-08 21:14N 01°15' E 103°42'0 0.0
2014-Sep-08 19:08N 01°15' E 103°42'0 0.0
2014-Sep-08 03:26N 01°15' E 103°42'0 0.0
2014-Sep-08 02:26N 01°15' E 103°42'0 0.1
2014-Sep-08 01:32N 01°15' E 103°42'1 1.4
2014-Sep-08 00:33N 01°14' E 103°42'2 1.6
2014-Sep-07 23:17N 01°12' E 103°41'0 0.0
2014-Sep-07 22:17N 01°12' E 103°41'0 0.0
2014-Sep-07 21:23N 01°12' E 103°41'0 0.0
2014-Sep-07 20:20N 01°12' E 103°41'2 1.9
2014-Sep-07 19:32N 01°12' E 103°40'4 4.2
2014-Sep-07 18:33N 01°10' E 103°43'5 5.4
2014-Sep-07 17:33N 01°11' E 103°48'6 5.8
2014-Sep-07 16:33N 01°13' E 103°54'  

Dump ship's entire track history